首页
METAR-TAF:

METAR-TAF

机场 :

哥伦比亚, 南卡罗来纳州, 美国

纬度: 33-56-31N, 经度: 081-07-05W, 海拔: 71米

当前天气观测

该预报发布于28分钟前的19:56 UTC
风速11节,风向东转东北
温度 9°C
湿度 93%
气压 1026 hPa
能見度: 9.7公里
阴天层高于1000英尺
小雨, 轻雾

METAR: KCAE 141956Z 07011KT 6SM -RA BR OVC010 09/08 A3029 RMK AO2 CIG 008V014 SLP257 P0001 T00940083

时间: 15:24 (20:24 UTC)

预报

该预报发布于41分钟前的19:43 UTC
预报有效从14日的 20点(UTC)到 15日的 18点(UTC)
风速10节,风向东北
能見度: 9.7公里
阴天层高于1000英尺
小雨
从 14日的 2100点(UTC)
风速10节,风向东北,有时为14节阵风
能見度: 8.0公里
阴天层高于800英尺
小雨, 轻雾
从 15日的 0000点(UTC)
风速11节,风向东北,有时为19节阵风
能見度: 4.8公里
阴天层高于700英尺
雨, 轻雾
从 15日的 0900点(UTC)
风速9节,风向北转东北,有时为15节阵风
能見度: 9.7公里
阴天层高于700英尺
小雨, 轻雾
从 15日的 1500点(UTC)
风速9节,风向北转西北
能見度: 10公里
阴天层高于800英尺

TAF: KCAE 141943Z 1420/1518 04010KT 6SM -RA OVC010 FM142100 04010G14KT 5SM -RA BR OVC008 FM150000 05011G19KT 3SM RA BR OVC007 FM150900 02009G15KT 6SM -RA BR OVC007 FM151500 34009KT P6SM OVC008

超过4000个机场的气象观测和天气预报(METAR&TAF报告)。

可查询的气象台以黄色和红色小点在地图上表示。

将鼠标移到小点上方,可查看气象台名称。

然后点击查看天气观测和预报。

如需切换地图:点击带黑十字的绿色按钮放大地图;点击带横线的绿色按钮缩小地图;或者点击绿色箭头查看邻近地区的地图。


METAR-TAF: